Time;durP1;ratioP1;P1;durP2;ratioP2;P2;SDS_P1;SDS_P2;PMS_P1;PMS_P2;Temp;Humidity;BMP_temperature;BMP_pressure;BME280_temperature;BME280_humidity;BME280_pressure;Samples;Min_cycle;Max_cycle;Signal;HPM_P1;HPM_P2
2023/02/02 00:01:07;;;;;;;56.60;42.42;;;;;;;;;;4221379;28;20093;-84
2023/02/02 00:03:29;;;;;;;88.78;58.97;;;;;;;;;;4222986;28;20043;-84
2023/02/02 00:05:51;;;;;;;61.95;43.35;;;;;;;;;;4210397;28;20051;-84
2023/02/02 00:08:11;;;;;;;60.90;40.97;;;;;;;;;;4223129;28;20288;-84
2023/02/02 00:10:31;;;;;;;65.65;45.50;;;;;;;;;;4220645;28;20328;-84
2023/02/02 00:12:52;;;;;;;65.15;43.95;;;;;;;;;;4222779;28;20035;-84
2023/02/02 00:15:13;;;;;;;58.67;44.30;;;;;;;;;;4223974;28;20055;-84
2023/02/02 00:17:33;;;;;;;60.83;44.30;;;;;;;;;;4209983;28;20386;-84
2023/02/02 00:19:53;;;;;;;51.53;40.33;;;;;;;;;;4214065;28;20074;-84
2023/02/02 00:22:14;;;;;;;63.67;42.53;;;;;;;;;;4224230;28;20260;-84
2023/02/02 00:24:34;;;;;;;44.95;35.05;;;;;;;;;;4222627;28;20043;-85
2023/02/02 00:26:56;;;;;;;32.83;28.02;;;;;;;;;;4225187;28;20051;-83
2023/02/02 00:29:18;;;;;;;69.22;48.72;;;;;;;;;;4210902;28;20178;-84
2023/02/02 00:31:38;;;;;;;57.15;43.60;;;;;;;;;;4224969;28;20300;-84
2023/02/02 00:33:59;;;;;;;66.28;48.88;;;;;;;;;;4227067;28;20043;-84
2023/02/02 00:36:20;;;;;;;71.90;50.20;;;;;;;;;;4222849;28;20082;-84
2023/02/02 00:38:40;;;;;;;66.50;44.75;;;;;;;;;;4226539;28;20081;-84
2023/02/02 00:41:00;;;;;;;50.55;40.00;;;;;;;;;;4212900;28;20056;-84
2023/02/02 00:43:20;;;;;;;49.25;39.65;;;;;;;;;;4221115;28;20043;-84
2023/02/02 00:45:41;;;;;;;48.70;39.38;;;;;;;;;;4208845;28;20079;-84
2023/02/02 00:48:01;;;;;;;61.22;44.63;;;;;;;;;;4224767;28;20139;-84
2023/02/02 00:50:21;;;;;;;50.88;38.90;;;;;;;;;;4223434;28;20093;-84
2023/02/02 00:52:41;;;;;;;61.05;42.40;;;;;;;;;;4209013;28;20355;-84
2023/02/02 00:55:01;;;;;;;57.90;41.20;;;;;;;;;;4209679;28;20085;-84
2023/02/02 00:57:22;;;;;;;48.90;36.50;;;;;;;;;;4220856;28;20069;-84
2023/02/02 00:59:42;;;;;;;34.10;30.13;;;;;;;;;;4220227;28;20035;-83
2023/02/02 01:02:03;;;;;;;33.60;29.55;;;;;;;;;;4222542;28;20085;-84
2023/02/02 01:04:23;;;;;;;34.28;26.17;;;;;;;;;;4212318;28;20039;-84
2023/02/02 01:06:43;;;;;;;27.20;23.98;;;;;;;;;;4208051;28;20086;-84
2023/02/02 01:09:04;;;;;;;27.13;24.02;;;;;;;;;;4221034;28;20043;-84
2023/02/02 01:11:24;;;;;;;36.28;29.00;;;;;;;;;;4221781;28;20089;-84
2023/02/02 01:13:44;;;;;;;45.42;33.40;;;;;;;;;;4223511;28;20378;-84
2023/02/02 01:16:05;;;;;;;40.65;36.08;;;;;;;;;;4224420;28;20046;-84
2023/02/02 01:18:26;;;;;;;47.92;35.60;;;;;;;;;;4213523;28;20048;-84
2023/02/02 01:20:46;;;;;;;54.20;41.78;;;;;;;;;;4223075;28;20044;-84
2023/02/02 01:23:07;;;;;;;48.67;38.80;;;;;;;;;;4207865;28;20047;-83
2023/02/02 01:25:29;;;;;;;44.33;38.03;;;;;;;;;;4225790;28;20068;-84
2023/02/02 01:27:49;;;;;;;44.03;34.83;;;;;;;;;;4208343;28;20059;-84
2023/02/02 01:30:10;;;;;;;50.25;34.20;;;;;;;;;;4221367;28;20223;-84
2023/02/02 01:32:30;;;;;;;46.60;35.08;;;;;;;;;;4226887;28;20090;-84
2023/02/02 01:34:50;;;;;;;35.28;29.83;;;;;;;;;;4210372;28;20063;-84
2023/02/02 01:37:10;;;;;;;39.90;32.72;;;;;;;;;;4222787;28;20310;-84
2023/02/02 01:39:30;;;;;;;34.65;30.98;;;;;;;;;;4222786;28;20070;-84
2023/02/02 01:41:53;;;;;;;33.05;27.83;;;;;;;;;;4224057;28;20043;-84
2023/02/02 01:44:32;;;;;;;36.92;29.23;;;;;;;;;;4221749;28;20042;-83
2023/02/02 01:46:53;;;;;;;29.17;25.52;;;;;;;;;;4209155;28;20256;-84
2023/02/02 01:49:18;;;;;;;30.20;26.95;;;;;;;;;;4221553;28;20349;-84
2023/02/02 01:51:42;;;;;;;29.65;25.77;;;;;;;;;;4223188;28;20054;-84
2023/02/02 01:54:05;;;;;;;29.52;26.38;;;;;;;;;;4220188;28;20074;-84
2023/02/02 01:56:32;;;;;;;43.38;30.73;;;;;;;;;;4222458;28;20085;-84
2023/02/02 01:58:52;;;;;;;35.92;32.13;;;;;;;;;;4219705;28;20054;-84
2023/02/02 02:01:13;;;;;;;29.27;26.35;;;;;;;;;;4222610;28;20081;-84
2023/02/02 02:03:34;;;;;;;35.60;30.48;;;;;;;;;;4221847;28;20089;-85
2023/02/02 02:06:04;;;;;;;41.38;32.38;;;;;;;;;;4222505;28;20062;-84
2023/02/02 02:08:29;;;;;;;40.15;32.60;;;;;;;;;;4222688;28;20047;-84
2023/02/02 02:10:50;;;;;;;40.95;33.47;;;;;;;;;;4222259;28;20129;-84
2023/02/02 02:13:10;;;;;;;48.65;37.35;;;;;;;;;;4224572;28;20462;-84
2023/02/02 02:18:11;;;;;;;36.90;32.88;;;;;;;;;;4226199;28;20051;-84
2023/02/02 02:28:58;;;;;;;48.40;36.15;;;;;;;;;;4221528;28;20047;-84
2023/02/02 02:31:37;;;;;;;89.43;38.67;;;;;;;;;;4210267;28;20243;-84
2023/02/02 02:34:02;;;;;;;37.38;32.60;;;;;;;;;;4222392;28;20044;-84
2023/02/02 02:36:36;;;;;;;44.28;32.95;;;;;;;;;;4222817;28;20093;-83
2023/02/02 02:39:15;;;;;;;65.78;35.28;;;;;;;;;;4223696;28;20090;-84
2023/02/02 02:41:39;;;;;;;119.47;34.05;;;;;;;;;;4217790;28;20301;-84
2023/02/02 02:44:00;;;;;;;60.90;33.60;;;;;;;;;;4208340;28;20259;-84
2023/02/02 02:46:21;;;;;;;48.72;30.95;;;;;;;;;;4221183;28;20106;-84
2023/02/02 02:48:45;;;;;;;87.82;37.53;;;;;;;;;;4207902;28;20082;-84
2023/02/02 02:51:05;;;;;;;;;;;;;;;;;;4222520;28;20056;-84
2023/02/02 02:53:25;;;;;;;112.78;45.47;;;;;;;;;;4209480;28;19923;-84
2023/02/02 02:56:06;;;;;;;112.50;52.05;;;;;;;;;;4224200;28;20046;-84
2023/02/02 02:58:33;;;;;;;114.03;53.20;;;;;;;;;;4219829;28;20050;-84
2023/02/02 03:00:57;;;;;;;84.82;49.88;;;;;;;;;;4204606;28;20047;-84
2023/02/02 03:03:36;;;;;;;94.03;53.47;;;;;;;;;;4221087;28;20115;-84
2023/02/02 03:06:12;;;;;;;118.82;50.17;;;;;;;;;;4220311;28;20043;-84
2023/02/02 03:08:39;;;;;;;46.92;38.13;;;;;;;;;;4207584;28;20126;-84
2023/02/02 03:11:01;;;;;;;78.55;35.05;;;;;;;;;;4222921;28;20099;-84
2023/02/02 03:13:21;;;;;;;110.25;35.50;;;;;;;;;;4221495;28;20039;-84
2023/02/02 03:15:43;;;;;;;149.00;39.40;;;;;;;;;;4225503;28;20083;-84
2023/02/02 03:18:03;;;;;;;132.25;35.78;;;;;;;;;;4223490;28;20236;-84
2023/02/02 03:20:23;;;;;;;112.57;36.78;;;;;;;;;;4208199;28;20043;-84
2023/02/02 03:22:43;;;;;;;114.22;35.95;;;;;;;;;;4226888;28;20105;-84
2023/02/02 03:25:03;;;;;;;117.20;37.75;;;;;;;;;;4226172;28;20038;-83
2023/02/02 03:27:23;;;;;;;75.15;35.58;;;;;;;;;;4225562;28;20102;-84
2023/02/02 03:29:44;;;;;;;159.40;37.05;;;;;;;;;;4225981;28;20035;-84
2023/02/02 03:32:04;;;;;;;74.10;32.03;;;;;;;;;;4223958;28;20082;-84
2023/02/02 03:34:24;;;;;;;106.38;34.40;;;;;;;;;;4225024;28;20058;-84
2023/02/02 03:36:45;;;;;;;62.67;34.30;;;;;;;;;;4209576;28;20401;-84
2023/02/02 03:39:05;;;;;;;65.93;30.70;;;;;;;;;;4221585;28;20035;-84
2023/02/02 03:41:25;;;;;;;112.78;33.30;;;;;;;;;;4221080;28;20358;-84
2023/02/02 03:43:46;;;;;;;42.15;35.75;;;;;;;;;;4223783;28;20050;-84
2023/02/02 03:46:06;;;;;;;64.60;35.67;;;;;;;;;;4224272;28;20155;-83
2023/02/02 03:48:27;;;;;;;96.30;36.97;;;;;;;;;;4229171;28;20080;-84
2023/02/02 03:50:47;;;;;;;100.63;32.85;;;;;;;;;;4224955;28;20374;-84
2023/02/02 03:53:07;;;;;;;123.03;38.30;;;;;;;;;;4225899;28;20065;-84
2023/02/02 03:55:27;;;;;;;90.93;40.13;;;;;;;;;;4223368;28;20051;-84
2023/02/02 03:57:48;;;;;;;54.95;40.80;;;;;;;;;;4225852;28;20094;-84
2023/02/02 04:00:08;;;;;;;61.50;42.42;;;;;;;;;;4226045;28;20055;-83
2023/02/02 04:02:29;;;;;;;119.70;44.92;;;;;;;;;;4223222;28;20066;-84
2023/02/02 04:04:49;;;;;;;87.13;46.88;;;;;;;;;;4208729;28;20086;-84
2023/02/02 04:07:09;;;;;;;88.30;52.03;;;;;;;;;;4225573;28;20078;-84
2023/02/02 04:09:29;;;;;;;111.40;53.25;;;;;;;;;;4225847;28;20047;-84
2023/02/02 04:11:49;;;;;;;95.72;53.60;;;;;;;;;;4223551;28;20043;-84
2023/02/02 04:14:10;;;;;;;59.22;49.83;;;;;;;;;;4226615;28;20236;-84
2023/02/02 04:16:33;;;;;;;102.32;53.15;;;;;;;;;;4226971;28;20093;-84
2023/02/02 04:18:54;;;;;;;;;;;;;;;;;;4223366;28;20224;-83
2023/02/02 04:21:14;;;;;;;82.25;54.15;;;;;;;;;;4226430;28;19938;-83
2023/02/02 04:23:35;;;;;;;102.07;55.60;;;;;;;;;;4215117;28;20047;-84
2023/02/02 04:25:56;;;;;;;83.20;58.60;;;;;;;;;;4225598;28;20104;-83
2023/02/02 04:28:16;;;;;;;64.72;57.33;;;;;;;;;;4223509;28;20097;-83
2023/02/02 04:30:36;;;;;;;60.75;53.08;;;;;;;;;;4222556;28;20055;-83
2023/02/02 04:32:56;;;;;;;61.38;54.90;;;;;;;;;;4224136;28;20089;-84
2023/02/02 04:35:16;;;;;;;57.30;51.53;;;;;;;;;;4225060;28;20094;-83
2023/02/02 04:37:36;;;;;;;73.93;51.00;;;;;;;;;;4223525;28;20050;-83
2023/02/02 04:39:57;;;;;;;54.75;49.28;;;;;;;;;;4220309;28;20304;-84
2023/02/02 04:42:18;;;;;;;67.43;54.00;;;;;;;;;;4209613;28;20379;-84
2023/02/02 04:44:38;;;;;;;64.82;53.45;;;;;;;;;;4226321;28;20086;-83
2023/02/02 04:46:59;;;;;;;60.10;49.05;;;;;;;;;;4229454;28;20070;-83
2023/02/02 04:49:20;;;;;;;81.93;49.50;;;;;;;;;;4223866;28;20219;-83
2023/02/02 04:51:41;;;;;;;99.07;55.08;;;;;;;;;;4224251;28;20105;-83
2023/02/02 04:54:01;;;;;;;62.40;48.30;;;;;;;;;;4225504;28;20404;-84
2023/02/02 04:56:22;;;;;;;59.53;48.55;;;;;;;;;;4209179;28;20063;-82
2023/02/02 04:58:42;;;;;;;69.32;48.88;;;;;;;;;;4224014;28;20094;-83
2023/02/02 05:01:14;;;;;;;79.25;47.53;;;;;;;;;;4221626;28;20077;-83
2023/02/02 05:03:34;;;;;;;70.70;49.20;;;;;;;;;;4223645;28;20040;-83
2023/02/02 05:06:01;;;;;;;83.55;49.75;;;;;;;;;;4223759;28;20089;-83
2023/02/02 05:08:22;;;;;;;61.83;50.25;;;;;;;;;;4224964;28;20131;-83
2023/02/02 05:10:42;;;;;;;58.20;50.40;;;;;;;;;;4223799;28;20055;-83
2023/02/02 05:13:02;;;;;;;55.35;50.13;;;;;;;;;;4211232;28;20086;-83
2023/02/02 05:15:22;;;;;;;156.82;54.75;;;;;;;;;;4225967;28;20078;-83
2023/02/02 05:17:43;;;;;;;72.95;54.63;;;;;;;;;;4224049;28;20231;-83
2023/02/02 05:20:04;;;;;;;75.55;54.17;;;;;;;;;;4223380;28;20055;-83
2023/02/02 05:22:24;;;;;;;90.38;54.40;;;;;;;;;;4213661;28;20231;-83
2023/02/02 05:24:45;;;;;;;55.28;50.20;;;;;;;;;;4223663;28;20142;-84
2023/02/02 05:27:05;;;;;;;57.05;43.63;;;;;;;;;;4223515;28;20093;-84
2023/02/02 05:29:26;;;;;;;64.60;45.33;;;;;;;;;;4209385;28;20101;-83
2023/02/02 05:31:46;;;;;;;71.63;43.45;;;;;;;;;;4224295;28;20358;-84
2023/02/02 05:34:10;;;;;;;56.00;41.38;;;;;;;;;;4223226;28;20053;-84
2023/02/02 05:36:30;;;;;;;52.10;45.83;;;;;;;;;;4220522;28;20055;-84
2023/02/02 05:38:50;;;;;;;46.42;41.78;;;;;;;;;;4206948;28;20040;-84
2023/02/02 05:41:11;;;;;;;62.58;45.53;;;;;;;;;;4222961;28;20077;-83
2023/02/02 05:43:32;;;;;;;61.55;55.55;;;;;;;;;;4226217;28;20039;-83
2023/02/02 05:45:53;;;;;;;50.00;44.55;;;;;;;;;;4225555;28;20262;-84
2023/02/02 05:48:13;;;;;;;83.45;48.15;;;;;;;;;;4222884;28;20092;-83
2023/02/02 05:50:34;;;;;;;95.03;51.42;;;;;;;;;;4222971;28;20079;-83
2023/02/02 05:52:54;;;;;;;84.15;53.20;;;;;;;;;;4223036;28;20050;-83
2023/02/02 05:55:14;;;;;;;88.45;54.38;;;;;;;;;;4219259;28;20141;-84
2023/02/02 05:57:34;;;;;;;113.30;57.88;;;;;;;;;;4222042;28;20047;-83
2023/02/02 05:59:54;;;;;;;65.38;58.40;;;;;;;;;;4222371;28;20074;-83
2023/02/02 06:02:15;;;;;;;116.25;61.97;;;;;;;;;;4221168;28;20051;-83
2023/02/02 06:04:35;;;;;;;99.18;60.08;;;;;;;;;;4222615;28;20406;-83
2023/02/02 06:06:55;;;;;;;67.15;54.25;;;;;;;;;;4225709;28;20281;-83
2023/02/02 06:09:15;;;;;;;89.35;54.47;;;;;;;;;;4224250;28;20051;-83
2023/02/02 06:11:36;;;;;;;58.17;52.03;;;;;;;;;;4224792;28;20453;-84
2023/02/02 06:13:56;;;;;;;58.60;52.53;;;;;;;;;;4225445;28;20104;-84
2023/02/02 06:16:16;;;;;;;106.32;55.03;;;;;;;;;;4223011;28;20051;-83
2023/02/02 06:18:37;;;;;;;63.78;56.83;;;;;;;;;;4207382;28;20039;-83
2023/02/02 06:20:58;;;;;;;61.28;55.13;;;;;;;;;;4221776;28;20039;-84
2023/02/02 06:23:18;;;;;;;63.08;56.97;;;;;;;;;;4225694;28;20149;-83
2023/02/02 06:25:39;;;;;;;91.55;52.72;;;;;;;;;;4222907;28;20090;-84
2023/02/02 06:27:59;;;;;;;116.32;57.00;;;;;;;;;;4223201;28;20054;-89
2023/02/02 06:30:20;;;;;;;97.43;63.22;;;;;;;;;;4222763;28;20062;-90
2023/02/02 06:32:40;;;;;;;61.70;55.67;;;;;;;;;;4222898;28;20047;-90
2023/02/02 06:35:00;;;;;;;58.25;52.83;;;;;;;;;;4206881;28;20043;-90
2023/02/02 06:37:21;;;;;;;81.25;54.08;;;;;;;;;;4219456;28;20059;-89
2023/02/02 06:39:41;;;;;;;62.40;55.22;;;;;;;;;;4220065;28;20123;-89
2023/02/02 06:42:02;;;;;;;88.60;59.00;;;;;;;;;;4225150;28;20464;-89
2023/02/02 06:44:40;;;;;;;84.70;53.88;;;;;;;;;;4224380;28;20384;-90
2023/02/02 06:47:01;;;;;;;68.85;53.30;;;;;;;;;;4223131;28;20055;-89
2023/02/02 06:49:21;;;;;;;55.83;50.22;;;;;;;;;;4226068;28;20357;-89
2023/02/02 06:51:42;;;;;;;58.67;52.55;;;;;;;;;;4223562;28;20055;-90
2023/02/02 06:54:03;;;;;;;54.03;49.65;;;;;;;;;;4218695;28;20103;-90
2023/02/02 06:56:23;;;;;;;59.90;53.97;;;;;;;;;;4223511;28;20073;-90
2023/02/02 06:58:43;;;;;;;86.18;55.17;;;;;;;;;;4223651;28;20239;-89
2023/02/02 07:01:11;;;;;;;57.67;52.75;;;;;;;;;;4210473;28;20402;-88
2023/02/02 07:03:32;;;;;;;64.38;54.63;;;;;;;;;;4226343;28;20095;-88
2023/02/02 07:05:52;;;;;;;57.92;52.55;;;;;;;;;;4225622;28;20046;-89
2023/02/02 07:08:12;;;;;;;53.63;48.88;;;;;;;;;;4209459;28;20040;-88
2023/02/02 07:10:32;;;;;;;56.97;46.10;;;;;;;;;;4224999;28;20038;-88
2023/02/02 07:13:13;;;;;;;42.28;38.67;;;;;;;;;;4224639;28;20055;-88
2023/02/02 07:15:33;;;;;;;58.88;30.70;;;;;;;;;;4227353;28;20235;-88
2023/02/02 07:17:54;;;;;;;61.42;41.75;;;;;;;;;;4224742;28;20074;-88
2023/02/02 07:20:14;;;;;;;45.17;41.03;;;;;;;;;;4226227;28;20059;-89
2023/02/02 07:22:35;;;;;;;45.47;39.03;;;;;;;;;;4226570;28;20280;-88
2023/02/02 07:24:55;;;;;;;75.63;46.03;;;;;;;;;;4224046;28;20047;-89
2023/02/02 07:27:15;;;;;;;55.25;49.97;;;;;;;;;;4224036;28;20051;-89
2023/02/02 07:29:35;;;;;;;57.95;50.55;;;;;;;;;;4225301;28;20047;-88
2023/02/02 07:31:55;;;;;;;84.68;51.42;;;;;;;;;;4209367;28;20055;-88
2023/02/02 07:34:16;;;;;;;80.43;49.65;;;;;;;;;;4223476;28;20035;-89
2023/02/02 07:36:37;;;;;;;95.00;51.42;;;;;;;;;;4221844;28;20053;-89
2023/02/02 07:38:58;;;;;;;121.75;59.38;;;;;;;;;;4224963;28;20055;-89
2023/02/02 07:41:18;;;;;;;57.20;51.67;;;;;;;;;;4228053;28;20081;-88
2023/02/02 07:43:38;;;;;;;52.70;45.92;;;;;;;;;;4227820;28;20055;-88
2023/02/02 07:46:03;;;;;;;118.72;37.47;;;;;;;;;;4223517;28;20157;-89
2023/02/02 07:48:23;;;;;;;74.28;42.15;;;;;;;;;;4227718;28;20311;-89
2023/02/02 07:50:44;;;;;;;129.98;53.15;;;;;;;;;;4224616;28;20054;-88
2023/02/02 07:53:04;;;;;;;106.55;52.67;;;;;;;;;;4220173;28;20153;-88
2023/02/02 07:55:24;;;;;;;72.22;52.45;;;;;;;;;;4221753;28;20126;-89
2023/02/02 07:57:44;;;;;;;180.38;53.83;;;;;;;;;;4210536;28;20051;-88
2023/02/02 08:00:05;;;;;;;341.80;61.65;;;;;;;;;;4222405;28;20393;-89
2023/02/02 08:02:25;;;;;;;72.82;53.65;;;;;;;;;;4225028;28;20366;-89
2023/02/02 08:04:46;;;;;;;210.13;53.20;;;;;;;;;;4224319;28;20039;-89
2023/02/02 08:07:06;;;;;;;86.72;36.95;;;;;;;;;;4209942;28;20051;-89
2023/02/02 08:09:26;;;;;;;78.05;35.58;;;;;;;;;;4223949;28;20228;-89
2023/02/02 08:11:47;;;;;;;120.45;38.72;;;;;;;;;;4226052;28;20373;-89
2023/02/02 08:14:07;;;;;;;93.63;41.53;;;;;;;;;;4227829;28;20269;-89
2023/02/02 08:16:29;;;;;;;99.00;45.95;;;;;;;;;;4223942;28;20048;-89
2023/02/02 08:18:50;;;;;;;153.15;52.05;;;;;;;;;;4210840;28;20047;-89
2023/02/02 08:21:10;;;;;;;96.10;59.83;;;;;;;;;;4224698;28;20053;-89
2023/02/02 08:23:31;;;;;;;270.42;62.75;;;;;;;;;;4209620;28;20082;-89
2023/02/02 08:25:51;;;;;;;119.90;49.35;;;;;;;;;;4207966;28;20070;-89
2023/02/02 08:28:11;;;;;;;333.83;57.63;;;;;;;;;;4223674;28;20077;-88
2023/02/02 08:30:31;;;;;;;109.30;51.55;;;;;;;;;;4223097;28;20074;-89
2023/02/02 08:32:51;;;;;;;94.97;51.97;;;;;;;;;;4208244;28;20048;-88
2023/02/02 08:35:12;;;;;;;143.45;50.47;;;;;;;;;;4223410;28;20059;-88
2023/02/02 08:37:32;;;;;;;65.20;42.35;;;;;;;;;;4209570;28;20043;-89
2023/02/02 08:39:52;;;;;;;214.55;41.95;;;;;;;;;;4227319;28;20077;-88
2023/02/02 08:42:12;;;;;;;351.73;55.67;;;;;;;;;;4214161;28;20066;-88
2023/02/02 08:44:33;;;;;;;89.22;39.55;;;;;;;;;;4223417;28;20081;-89
2023/02/02 08:47:13;;;;;;;315.83;56.58;;;;;;;;;;4214376;28;20140;-88
2023/02/02 08:49:34;;;;;;;240.32;52.53;;;;;;;;;;4207143;28;20044;-88
2023/02/02 08:51:54;;;;;;;123.00;49.92;;;;;;;;;;4219372;28;20369;-89
2023/02/02 08:54:14;;;;;;;104.22;47.35;;;;;;;;;;4220944;28;20393;-89
2023/02/02 08:56:35;;;;;;;94.43;36.97;;;;;;;;;;4223947;28;20097;-90
2023/02/02 08:58:59;;;;;;;163.27;36.75;;;;;;;;;;4212779;28;20059;-88
2023/02/02 09:01:21;;;;;;;267.67;48.72;;;;;;;;;;4224847;28;20035;-89
2023/02/02 09:03:41;;;;;;;117.43;42.27;;;;;;;;;;4209034;28;20115;-89
2023/02/02 09:06:15;;;;;;;60.28;32.00;;;;;;;;;;4224994;28;20289;-89
2023/02/02 09:08:36;;;;;;;95.43;27.95;;;;;;;;;;4223435;28;20058;-89
2023/02/02 09:10:56;;;;;;;166.15;36.33;;;;;;;;;;4225638;28;20087;-89
2023/02/02 09:13:16;;;;;;;128.50;32.92;;;;;;;;;;4210957;28;20052;-88
2023/02/02 09:15:36;;;;;;;122.65;36.00;;;;;;;;;;4220798;28;20239;-89
2023/02/02 09:17:56;;;;;;;150.85;32.17;;;;;;;;;;4220565;28;20072;-91
2023/02/02 09:20:16;;;;;;;92.43;28.85;;;;;;;;;;4222440;28;20050;-90
2023/02/02 09:22:38;;;;;;;94.13;24.55;;;;;;;;;;4224571;28;20077;-89
2023/02/02 09:24:58;;;;;;;73.40;24.88;;;;;;;;;;4222273;28;20081;-89
2023/02/02 09:27:18;;;;;;;73.57;23.70;;;;;;;;;;4222243;28;20141;-90
2023/02/02 09:29:39;;;;;;;205.55;29.10;;;;;;;;;;4222031;28;20042;-90
2023/02/02 09:31:59;;;;;;;59.90;24.60;;;;;;;;;;4209107;28;20365;-89
2023/02/02 09:34:19;;;;;;;185.27;30.70;;;;;;;;;;4224041;28;20066;-90
2023/02/02 09:36:40;;;;;;;149.35;30.38;;;;;;;;;;4220510;28;20085;-90
2023/02/02 09:39:00;;;;;;;156.85;29.23;;;;;;;;;;4226019;28;20062;-89
2023/02/02 09:41:21;;;;;;;31.27;26.10;;;;;;;;;;4218764;28;20046;-90
2023/02/02 09:43:41;;;;;;;45.47;27.73;;;;;;;;;;4215258;28;20339;-89
2023/02/02 09:46:11;;;;;;;62.10;30.50;;;;;;;;;;4209387;28;20101;-90
2023/02/02 09:48:32;;;;;;;61.03;30.50;;;;;;;;;;4223227;28;20043;-89
2023/02/02 09:50:54;;;;;;;45.47;31.30;;;;;;;;;;4219319;28;20097;-89
2023/02/02 09:53:38;;;;;;;48.27;30.93;;;;;;;;;;4220726;28;20066;-89
2023/02/02 09:56:21;;;;;;;55.35;31.00;;;;;;;;;;4222745;28;20327;-90
2023/02/02 09:58:45;;;;;;;72.78;32.63;;;;;;;;;;4222724;28;20419;-89
2023/02/02 10:01:15;;;;;;;44.67;30.52;;;;;;;;;;4221928;28;20046;-89
2023/02/02 10:03:55;;;;;;;51.17;33.05;;;;;;;;;;4223530;28;20034;-90
2023/02/02 10:06:22;;;;;;;92.53;34.88;;;;;;;;;;4207176;28;20087;-90
2023/02/02 10:08:45;;;;;;;79.63;36.60;;;;;;;;;;4223414;28;20067;-89
2023/02/02 10:11:05;;;;;;;;;;;;;;;;;;4226761;28;20054;-90
2023/02/02 10:13:32;;;;;;;90.30;44.70;;;;;;;;;;4222866;28;20049;-89
2023/02/02 10:16:12;;;;;;;101.38;41.67;;;;;;;;;;4219342;28;20112;-89
2023/02/02 10:18:45;;;;;;;86.90;45.30;;;;;;;;;;4206521;28;20052;-90
2023/02/02 10:21:20;;;;;;;63.03;39.53;;;;;;;;;;4222817;28;20097;-90
2023/02/02 10:23:44;;;;;;;71.45;35.35;;;;;;;;;;4224072;28;20038;-90
2023/02/02 10:26:04;;;;;;;63.47;40.05;;;;;;;;;;4220515;28;20273;-90
2023/02/02 10:28:42;;;;;;;65.28;41.75;;;;;;;;;;4221925;28;20047;-90
2023/02/02 10:31:03;;;;;;;73.22;45.00;;;;;;;;;;4225588;28;20050;-90
2023/02/02 10:33:37;;;;;;;59.20;38.28;;;;;;;;;;4223838;28;20043;-90
2023/02/02 10:36:04;;;;;;;54.65;35.95;;;;;;;;;;4221621;28;20043;-90
2023/02/02 10:38:44;;;;;;;51.97;36.42;;;;;;;;;;4225807;28;20046;-90
2023/02/02 10:41:08;;;;;;;44.30;37.42;;;;;;;;;;4207037;28;20248;-90
2023/02/02 10:43:53;;;;;;;45.25;35.35;;;;;;;;;;4225019;28;20115;-90
2023/02/02 10:46:19;;;;;;;50.50;38.38;;;;;;;;;;4223730;28;20227;-90
2023/02/02 10:48:41;;;;;;;61.25;46.00;;;;;;;;;;4203574;28;20051;-90
2023/02/02 10:51:04;;;;;;;67.30;49.13;;;;;;;;;;4219063;28;20478;-90
2023/02/02 10:53:28;;;;;;;73.65;54.65;;;;;;;;;;4221558;28;20054;-90
2023/02/02 10:55:51;;;;;;;56.60;43.03;;;;;;;;;;4208101;28;20082;-90
2023/02/02 10:58:11;;;;;;;52.75;40.00;;;;;;;;;;4221937;28;20058;-91
2023/02/02 11:00:31;;;;;;;58.53;44.25;;;;;;;;;;4220163;28;20073;-90
2023/02/02 11:02:52;;;;;;;62.92;46.70;;;;;;;;;;4220963;28;20044;-90
2023/02/02 11:07:59;;;;;;;52.58;40.22;;;;;;;;;;4222956;28;20180;-90
2023/02/02 11:10:19;;;;;;;52.35;39.30;;;;;;;;;;4211723;28;20066;-91
2023/02/02 11:12:45;;;;;;;28.92;23.55;;;;;;;;;;4221380;28;20086;-90
2023/02/02 11:15:07;;;;;;;22.92;19.05;;;;;;;;;;4218596;28;20143;-90
2023/02/02 11:17:28;;;;;;;16.55;14.75;;;;;;;;;;4209490;28;20052;-91
2023/02/02 11:19:49;;;;;;;17.17;14.13;;;;;;;;;;4222758;28;20224;-90
2023/02/02 11:22:22;;;;;;;17.73;14.70;;;;;;;;;;4221325;28;20063;-92
2023/02/02 11:24:46;;;;;;;15.43;13.90;;;;;;;;;;4219588;28;20071;-91
2023/02/02 11:27:21;;;;;;;16.60;14.93;;;;;;;;;;4225706;28;20043;-91
2023/02/02 11:29:44;;;;;;;11.65;10.90;;;;;;;;;;4220443;28;20039;-92
2023/02/02 11:32:19;;;;;;;18.05;13.70;;;;;;;;;;4208281;28;20055;-91
2023/02/02 11:34:39;;;;;;;48.92;35.45;;;;;;;;;;4220063;28;20080;-91
2023/02/02 11:37:18;;;;;;;24.08;18.88;;;;;;;;;;4221615;28;20039;-91
2023/02/02 11:39:39;;;;;;;8.05;6.90;;;;;;;;;;4223809;28;20039;-92
2023/02/02 11:42:19;;;;;;;7.13;6.63;;;;;;;;;;4208100;28;20067;-90
2023/02/02 11:44:42;;;;;;;7.60;6.82;;;;;;;;;;4224910;28;20082;-92
2023/02/02 11:47:04;;;;;;;6.68;5.93;;;;;;;;;;4222246;28;20063;-91
2023/02/02 11:49:24;;;;;;;6.15;5.55;;;;;;;;;;4210563;28;20229;-92
2023/02/02 11:52:03;;;;;;;7.38;5.03;;;;;;;;;;4225123;28;20077;-92
2023/02/02 11:54:28;;;;;;;5.30;5.00;;;;;;;;;;4209605;28;20067;-92
2023/02/02 11:56:49;;;;;;;5.50;5.18;;;;;;;;;;4222529;28;20069;-91
2023/02/02 11:59:27;;;;;;;11.55;7.07;;;;;;;;;;4211666;28;20056;-91
2023/02/02 12:01:47;;;;;;;5.30;5.00;;;;;;;;;;4225961;28;20079;-91
2023/02/02 12:04:16;;;;;;;3.70;3.40;;;;;;;;;;4209442;28;20120;-91
2023/02/02 12:06:37;;;;;;;6.22;5.82;;;;;;;;;;4224502;28;20078;-91
2023/02/02 12:09:00;;;;;;;3.72;3.47;;;;;;;;;;4213876;28;20067;-91
2023/02/02 12:11:26;;;;;;;3.13;2.93;;;;;;;;;;4224294;28;20235;-92
2023/02/02 12:13:46;;;;;;;4.18;4.03;;;;;;;;;;4223055;28;20047;-91
2023/02/02 12:16:14;;;;;;;9.27;5.45;;;;;;;;;;4225016;28;20078;-91
2023/02/02 12:18:34;;;;;;;7.28;5.60;;;;;;;;;;4217120;28;20047;-90
2023/02/02 12:21:11;;;;;;;4.05;3.80;;;;;;;;;;4208751;28;20285;-92
2023/02/02 12:23:46;;;;;;;5.95;5.18;;;;;;;;;;4223950;28;20054;-90
2023/02/02 12:26:33;;;;;;;6.82;6.20;;;;;;;;;;4223090;28;20051;-90
2023/02/02 12:29:07;;;;;;;4.50;4.30;;;;;;;;;;4222947;28;20116;-91
2023/02/02 12:31:28;;;;;;;9.05;4.43;;;;;;;;;;4223797;28;20124;-91
2023/02/02 12:34:00;;;;;;;5.72;5.32;;;;;;;;;;4186124;28;20113;-91
2023/02/02 12:36:24;;;;;;;4.88;4.60;;;;;;;;;;4224766;28;20103;-90
2023/02/02 12:38:47;;;;;;;6.13;5.32;;;;;;;;;;4207630;28;20059;-91
2023/02/02 12:41:14;;;;;;;5.68;5.28;;;;;;;;;;4214151;28;20086;-91
2023/02/02 12:43:42;;;;;;;6.53;5.93;;;;;;;;;;4212056;28;20048;-91
2023/02/02 12:46:13;;;;;;;10.13;6.03;;;;;;;;;;4206488;28;20359;-88
2023/02/02 12:48:49;;;;;;;5.03;4.47;;;;;;;;;;4210082;28;20048;-88
2023/02/02 12:51:20;;;;;;;5.90;5.63;;;;;;;;;;4225366;28;20389;-88
2023/02/02 12:53:59;;;;;;;5.50;5.32;;;;;;;;;;4210125;28;20075;-88
2023/02/02 12:56:39;;;;;;;5.15;4.65;;;;;;;;;;4221473;28;20075;-88
2023/02/02 12:59:05;;;;;;;5.03;4.72;;;;;;;;;;4209518;28;20323;-88
2023/02/02 13:01:25;;;;;;;5.82;5.40;;;;;;;;;;4225703;28;20097;-88
2023/02/02 13:03:58;;;;;;;7.90;5.65;;;;;;;;;;4225731;28;20035;-88
2023/02/02 13:06:22;;;;;;;10.80;8.60;;;;;;;;;;4211577;28;20391;-88
2023/02/02 13:08:47;;;;;;;7.20;6.72;;;;;;;;;;4212506;28;20064;-88
2023/02/02 13:11:28;;;;;;;6.35;5.70;;;;;;;;;;4221205;28;20051;-88
2023/02/02 13:13:49;;;;;;;5.75;4.97;;;;;;;;;;4224397;28;20039;-88
2023/02/02 13:16:11;;;;;;;7.72;7.00;;;;;;;;;;4223841;28;20081;-88
2023/02/02 13:18:36;;;;;;;8.07;6.45;;;;;;;;;;4208356;28;20103;-88
2023/02/02 13:21:16;;;;;;;8.77;6.90;;;;;;;;;;4221749;28;20114;-88
2023/02/02 13:23:39;;;;;;;6.47;5.93;;;;;;;;;;4223283;28;20117;-88
2023/02/02 13:26:03;;;;;;;14.27;8.38;;;;;;;;;;4207508;28;20082;-88
2023/02/02 13:28:37;;;;;;;7.25;6.40;;;;;;;;;;4226323;28;20331;-88
2023/02/02 13:30:59;;;;;;;6.80;4.47;;;;;;;;;;4220658;28;20370;-88
2023/02/02 13:33:23;;;;;;;5.38;4.95;;;;;;;;;;4223311;28;20381;-88
2023/02/02 13:35:46;;;;;;;6.32;5.60;;;;;;;;;;4225016;28;20083;-84
2023/02/02 13:38:13;;;;;;;5.50;5.10;;;;;;;;;;4224538;28;20089;-84
2023/02/02 13:40:34;;;;;;;9.93;5.43;;;;;;;;;;4226578;28;20112;-84
2023/02/02 13:43:13;;;;;;;5.30;4.90;;;;;;;;;;4222979;28;20082;-84
2023/02/02 13:45:37;;;;;;;5.40;4.93;;;;;;;;;;4206836;28;20130;-84
2023/02/02 13:48:05;;;;;;;4.03;3.63;;;;;;;;;;4220350;28;20396;-84
2023/02/02 13:50:29;;;;;;;5.70;5.07;;;;;;;;;;4223321;28;20039;-83
2023/02/02 13:52:49;;;;;;;5.97;4.43;;;;;;;;;;4223519;28;20231;-83
2023/02/02 13:55:22;;;;;;;4.75;4.55;;;;;;;;;;4222340;28;20086;-83
2023/02/02 13:57:47;;;;;;;3.47;3.28;;;;;;;;;;4208327;28;20243;-83
2023/02/02 14:00:14;;;;;;;5.50;3.58;;;;;;;;;;4223830;28;20050;-81
2023/02/02 14:02:57;;;;;;;5.13;4.47;;;;;;;;;;4208543;28;20058;-81
2023/02/02 14:05:26;;;;;;;4.40;4.10;;;;;;;;;;4224072;28;20117;-81
2023/02/02 14:07:47;;;;;;;5.72;3.83;;;;;;;;;;4224140;28;20070;-81
2023/02/02 14:10:19;;;;;;;4.47;4.05;;;;;;;;;;4207817;28;20059;-80
2023/02/02 14:12:40;;;;;;;3.30;3.20;;;;;;;;;;4223559;28;20054;-81